sensor_id;sensor_type;location;lat;lon;timestamp;P1;durP1;ratioP1;P2;durP2;ratioP2
73456;SDS011;61691;53.072;6.582;2024-01-16T00:02:09;18.23;;;2.30;;
73456;SDS011;61691;53.072;6.582;2024-01-16T00:04:36;16.42;;;3.13;;
73456;SDS011;61691;53.072;6.582;2024-01-16T00:07:04;14.68;;;2.25;;
73456;SDS011;61691;53.072;6.582;2024-01-16T00:09:34;15.30;;;2.22;;
73456;SDS011;61691;53.072;6.582;2024-01-16T00:12:02;18.38;;;2.30;;
73456;SDS011;61691;53.072;6.582;2024-01-16T00:14:30;14.45;;;2.65;;
73456;SDS011;61691;53.072;6.582;2024-01-16T00:16:57;18.05;;;2.30;;
73456;SDS011;61691;53.072;6.582;2024-01-16T00:19:23;15.32;;;2.20;;
73456;SDS011;61691;53.072;6.582;2024-01-16T00:21:50;19.10;;;2.50;;
73456;SDS011;61691;53.072;6.582;2024-01-16T00:24:17;14.68;;;2.28;;
73456;SDS011;61691;53.072;6.582;2024-01-16T00:26:44;14.18;;;2.05;;
73456;SDS011;61691;53.072;6.582;2024-01-16T00:29:12;11.43;;;1.88;;
73456;SDS011;61691;53.072;6.582;2024-01-16T00:31:39;12.43;;;2.33;;
73456;SDS011;61691;53.072;6.582;2024-01-16T00:34:06;12.00;;;1.95;;
73456;SDS011;61691;53.072;6.582;2024-01-16T00:36:33;19.60;;;2.95;;
73456;SDS011;61691;53.072;6.582;2024-01-16T00:39:00;12.77;;;2.35;;
73456;SDS011;61691;53.072;6.582;2024-01-16T00:41:26;11.32;;;2.55;;
73456;SDS011;61691;53.072;6.582;2024-01-16T00:43:53;11.77;;;2.42;;
73456;SDS011;61691;53.072;6.582;2024-01-16T00:46:20;9.32;;;1.60;;
73456;SDS011;61691;53.072;6.582;2024-01-16T00:48:47;11.80;;;1.70;;
73456;SDS011;61691;53.072;6.582;2024-01-16T00:51:14;10.90;;;1.70;;
73456;SDS011;61691;53.072;6.582;2024-01-16T00:53:42;10.32;;;1.90;;
73456;SDS011;61691;53.072;6.582;2024-01-16T00:56:10;12.55;;;1.90;;
73456;SDS011;61691;53.072;6.582;2024-01-16T00:58:37;8.27;;;1.52;;
73456;SDS011;61691;53.072;6.582;2024-01-16T01:01:04;10.27;;;1.63;;
73456;SDS011;61691;53.072;6.582;2024-01-16T01:03:31;9.02;;;1.60;;
73456;SDS011;61691;53.072;6.582;2024-01-16T01:05:57;11.23;;;1.80;;
73456;SDS011;61691;53.072;6.582;2024-01-16T01:08:27;14.35;;;2.22;;
73456;SDS011;61691;53.072;6.582;2024-01-16T01:10:54;17.75;;;1.77;;
73456;SDS011;61691;53.072;6.582;2024-01-16T01:13:21;11.75;;;1.83;;
73456;SDS011;61691;53.072;6.582;2024-01-16T01:15:47;10.02;;;1.65;;
73456;SDS011;61691;53.072;6.582;2024-01-16T01:18:14;15.55;;;2.38;;
73456;SDS011;61691;53.072;6.582;2024-01-16T01:20:41;8.73;;;1.88;;
73456;SDS011;61691;53.072;6.582;2024-01-16T01:23:08;10.95;;;1.58;;
73456;SDS011;61691;53.072;6.582;2024-01-16T01:25:35;14.13;;;2.70;;
73456;SDS011;61691;53.072;6.582;2024-01-16T01:28:02;11.57;;;1.70;;
73456;SDS011;61691;53.072;6.582;2024-01-16T01:30:29;9.48;;;1.80;;
73456;SDS011;61691;53.072;6.582;2024-01-16T01:32:58;13.77;;;1.80;;
73456;SDS011;61691;53.072;6.582;2024-01-16T01:35:25;8.55;;;1.60;;
73456;SDS011;61691;53.072;6.582;2024-01-16T01:37:52;9.98;;;1.80;;
73456;SDS011;61691;53.072;6.582;2024-01-16T01:40:18;10.40;;;1.67;;
73456;SDS011;61691;53.072;6.582;2024-01-16T01:42:45;9.52;;;1.60;;
73456;SDS011;61691;53.072;6.582;2024-01-16T01:45:12;9.32;;;1.65;;
73456;SDS011;61691;53.072;6.582;2024-01-16T01:47:39;10.00;;;1.77;;
73456;SDS011;61691;53.072;6.582;2024-01-16T01:50:09;10.73;;;1.83;;
73456;SDS011;61691;53.072;6.582;2024-01-16T01:52:38;8.40;;;1.85;;
73456;SDS011;61691;53.072;6.582;2024-01-16T01:55:08;12.77;;;2.00;;
73456;SDS011;61691;53.072;6.582;2024-01-16T02:00:04;9.82;;;1.85;;
73456;SDS011;61691;53.072;6.582;2024-01-16T02:02:32;11.80;;;1.85;;
73456;SDS011;61691;53.072;6.582;2024-01-16T02:05:00;13.55;;;1.90;;
73456;SDS011;61691;53.072;6.582;2024-01-16T02:07:27;15.07;;;1.80;;
73456;SDS011;61691;53.072;6.582;2024-01-16T02:09:55;9.65;;;2.15;;
73456;SDS011;61691;53.072;6.582;2024-01-16T02:12:21;12.07;;;2.20;;
73456;SDS011;61691;53.072;6.582;2024-01-16T02:14:51;10.55;;;1.77;;
73456;SDS011;61691;53.072;6.582;2024-01-16T02:17:17;12.38;;;1.90;;
73456;SDS011;61691;53.072;6.582;2024-01-16T02:19:44;14.52;;;2.53;;
73456;SDS011;61691;53.072;6.582;2024-01-16T02:22:14;10.77;;;1.75;;
73456;SDS011;61691;53.072;6.582;2024-01-16T02:24:46;11.30;;;1.70;;
73456;SDS011;61691;53.072;6.582;2024-01-16T02:27:13;11.57;;;1.63;;
73456;SDS011;61691;53.072;6.582;2024-01-16T02:29:41;11.63;;;1.90;;
73456;SDS011;61691;53.072;6.582;2024-01-16T02:32:10;13.13;;;1.90;;
73456;SDS011;61691;53.072;6.582;2024-01-16T02:34:39;14.00;;;2.03;;
73456;SDS011;61691;53.072;6.582;2024-01-16T02:37:06;11.13;;;2.15;;
73456;SDS011;61691;53.072;6.582;2024-01-16T02:39:33;10.15;;;1.80;;
73456;SDS011;61691;53.072;6.582;2024-01-16T02:41:59;11.88;;;1.88;;
73456;SDS011;61691;53.072;6.582;2024-01-16T02:44:27;9.60;;;1.85;;
73456;SDS011;61691;53.072;6.582;2024-01-16T02:46:54;8.43;;;1.60;;
73456;SDS011;61691;53.072;6.582;2024-01-16T02:49:21;13.40;;;2.00;;
73456;SDS011;61691;53.072;6.582;2024-01-16T02:51:47;12.82;;;1.85;;
73456;SDS011;61691;53.072;6.582;2024-01-16T02:54:15;8.35;;;1.70;;
73456;SDS011;61691;53.072;6.582;2024-01-16T02:56:42;9.32;;;1.75;;
73456;SDS011;61691;53.072;6.582;2024-01-16T02:59:09;10.55;;;1.83;;
73456;SDS011;61691;53.072;6.582;2024-01-16T03:01:36;14.77;;;1.80;;
73456;SDS011;61691;53.072;6.582;2024-01-16T03:04:03;10.80;;;2.00;;
73456;SDS011;61691;53.072;6.582;2024-01-16T03:06:30;8.40;;;1.75;;
73456;SDS011;61691;53.072;6.582;2024-01-16T03:08:57;13.30;;;1.90;;
73456;SDS011;61691;53.072;6.582;2024-01-16T03:11:24;9.95;;;1.73;;
73456;SDS011;61691;53.072;6.582;2024-01-16T03:13:51;13.68;;;1.70;;
73456;SDS011;61691;53.072;6.582;2024-01-16T03:16:19;14.80;;;2.00;;
73456;SDS011;61691;53.072;6.582;2024-01-16T03:18:46;12.05;;;1.80;;
73456;SDS011;61691;53.072;6.582;2024-01-16T03:21:14;14.07;;;2.50;;
73456;SDS011;61691;53.072;6.582;2024-01-16T03:23:41;13.80;;;1.88;;
73456;SDS011;61691;53.072;6.582;2024-01-16T03:26:11;8.05;;;1.55;;
73456;SDS011;61691;53.072;6.582;2024-01-16T03:28:39;12.18;;;1.80;;
73456;SDS011;61691;53.072;6.582;2024-01-16T03:31:06;13.48;;;2.08;;
73456;SDS011;61691;53.072;6.582;2024-01-16T03:33:33;12.20;;;1.83;;
73456;SDS011;61691;53.072;6.582;2024-01-16T03:36:01;14.70;;;1.90;;
73456;SDS011;61691;53.072;6.582;2024-01-16T03:38:28;14.70;;;2.00;;
73456;SDS011;61691;53.072;6.582;2024-01-16T03:40:55;11.98;;;1.88;;
73456;SDS011;61691;53.072;6.582;2024-01-16T03:43:21;16.60;;;2.45;;
73456;SDS011;61691;53.072;6.582;2024-01-16T03:45:48;17.77;;;2.08;;
73456;SDS011;61691;53.072;6.582;2024-01-16T03:48:15;15.38;;;1.77;;
73456;SDS011;61691;53.072;6.582;2024-01-16T03:50:42;14.63;;;2.15;;
73456;SDS011;61691;53.072;6.582;2024-01-16T03:53:10;10.68;;;2.00;;
73456;SDS011;61691;53.072;6.582;2024-01-16T03:55:37;14.93;;;2.78;;
73456;SDS011;61691;53.072;6.582;2024-01-16T03:58:04;12.95;;;2.45;;
73456;SDS011;61691;53.072;6.582;2024-01-16T04:00:31;15.65;;;1.90;;
73456;SDS011;61691;53.072;6.582;2024-01-16T04:02:57;10.88;;;2.10;;
73456;SDS011;61691;53.072;6.582;2024-01-16T04:05:24;11.60;;;1.85;;
73456;SDS011;61691;53.072;6.582;2024-01-16T04:07:51;13.35;;;2.70;;
73456;SDS011;61691;53.072;6.582;2024-01-16T04:10:18;12.38;;;1.83;;
73456;SDS011;61691;53.072;6.582;2024-01-16T04:12:45;13.27;;;1.90;;
73456;SDS011;61691;53.072;6.582;2024-01-16T04:15:12;10.60;;;1.90;;
73456;SDS011;61691;53.072;6.582;2024-01-16T04:17:38;9.30;;;1.88;;
73456;SDS011;61691;53.072;6.582;2024-01-16T04:20:05;9.63;;;1.60;;
73456;SDS011;61691;53.072;6.582;2024-01-16T04:25:02;10.85;;;1.70;;
73456;SDS011;61691;53.072;6.582;2024-01-16T04:27:31;17.30;;;2.00;;
73456;SDS011;61691;53.072;6.582;2024-01-16T04:29:58;12.45;;;1.80;;
73456;SDS011;61691;53.072;6.582;2024-01-16T04:32:25;14.95;;;1.88;;
73456;SDS011;61691;53.072;6.582;2024-01-16T04:34:52;13.98;;;1.90;;
73456;SDS011;61691;53.072;6.582;2024-01-16T04:37:19;10.73;;;1.65;;
73456;SDS011;61691;53.072;6.582;2024-01-16T04:39:45;13.05;;;1.77;;
73456;SDS011;61691;53.072;6.582;2024-01-16T04:42:12;8.73;;;1.60;;
73456;SDS011;61691;53.072;6.582;2024-01-16T04:44:39;23.15;;;2.88;;
73456;SDS011;61691;53.072;6.582;2024-01-16T04:47:06;10.52;;;1.80;;
73456;SDS011;61691;53.072;6.582;2024-01-16T04:49:32;10.60;;;1.80;;
73456;SDS011;61691;53.072;6.582;2024-01-16T04:51:59;12.05;;;1.77;;
73456;SDS011;61691;53.072;6.582;2024-01-16T04:54:26;12.27;;;1.83;;
73456;SDS011;61691;53.072;6.582;2024-01-16T04:56:53;13.02;;;2.35;;
73456;SDS011;61691;53.072;6.582;2024-01-16T04:59:19;14.68;;;2.25;;
73456;SDS011;61691;53.072;6.582;2024-01-16T05:01:46;11.02;;;1.67;;
73456;SDS011;61691;53.072;6.582;2024-01-16T05:04:13;13.57;;;2.20;;
73456;SDS011;61691;53.072;6.582;2024-01-16T05:06:40;9.70;;;1.88;;
73456;SDS011;61691;53.072;6.582;2024-01-16T05:09:07;18.67;;;2.08;;
73456;SDS011;61691;53.072;6.582;2024-01-16T05:11:35;14.25;;;2.22;;
73456;SDS011;61691;53.072;6.582;2024-01-16T05:14:02;15.02;;;2.10;;
73456;SDS011;61691;53.072;6.582;2024-01-16T05:16:28;13.65;;;1.90;;
73456;SDS011;61691;53.072;6.582;2024-01-16T05:18:55;18.40;;;2.70;;
73456;SDS011;61691;53.072;6.582;2024-01-16T05:21:22;11.65;;;2.63;;
73456;SDS011;61691;53.072;6.582;2024-01-16T05:23:49;12.07;;;1.77;;
73456;SDS011;61691;53.072;6.582;2024-01-16T05:26:15;14.68;;;2.30;;
73456;SDS011;61691;53.072;6.582;2024-01-16T05:28:42;17.27;;;2.13;;
73456;SDS011;61691;53.072;6.582;2024-01-16T05:31:09;16.27;;;2.15;;
73456;SDS011;61691;53.072;6.582;2024-01-16T05:33:36;14.50;;;2.17;;
73456;SDS011;61691;53.072;6.582;2024-01-16T05:36:02;12.27;;;1.85;;
73456;SDS011;61691;53.072;6.582;2024-01-16T05:38:29;17.23;;;1.90;;
73456;SDS011;61691;53.072;6.582;2024-01-16T05:40:56;18.67;;;2.85;;
73456;SDS011;61691;53.072;6.582;2024-01-16T05:43:23;16.25;;;2.03;;
73456;SDS011;61691;53.072;6.582;2024-01-16T05:45:49;12.88;;;2.10;;
73456;SDS011;61691;53.072;6.582;2024-01-16T05:48:18;12.45;;;2.20;;
73456;SDS011;61691;53.072;6.582;2024-01-16T05:50:45;15.70;;;2.05;;
73456;SDS011;61691;53.072;6.582;2024-01-16T05:53:12;13.32;;;1.80;;
73456;SDS011;61691;53.072;6.582;2024-01-16T05:55:39;12.32;;;1.85;;
73456;SDS011;61691;53.072;6.582;2024-01-16T05:58:06;14.75;;;2.40;;
73456;SDS011;61691;53.072;6.582;2024-01-16T06:00:32;17.42;;;2.78;;
73456;SDS011;61691;53.072;6.582;2024-01-16T06:03:00;10.55;;;1.92;;
73456;SDS011;61691;53.072;6.582;2024-01-16T06:05:27;16.48;;;2.70;;
73456;SDS011;61691;53.072;6.582;2024-01-16T06:07:54;14.25;;;2.10;;
73456;SDS011;61691;53.072;6.582;2024-01-16T06:10:20;13.98;;;2.45;;
73456;SDS011;61691;53.072;6.582;2024-01-16T06:12:47;15.65;;;2.10;;
73456;SDS011;61691;53.072;6.582;2024-01-16T06:15:14;14.55;;;2.10;;
73456;SDS011;61691;53.072;6.582;2024-01-16T06:17:40;14.82;;;2.15;;
73456;SDS011;61691;53.072;6.582;2024-01-16T06:20:07;10.63;;;1.90;;
73456;SDS011;61691;53.072;6.582;2024-01-16T06:22:34;16.50;;;2.53;;
73456;SDS011;61691;53.072;6.582;2024-01-16T06:25:01;17.17;;;2.00;;
73456;SDS011;61691;53.072;6.582;2024-01-16T06:27:28;13.00;;;2.10;;
73456;SDS011;61691;53.072;6.582;2024-01-16T06:29:55;14.23;;;2.35;;
73456;SDS011;61691;53.072;6.582;2024-01-16T06:32:22;12.13;;;1.80;;
73456;SDS011;61691;53.072;6.582;2024-01-16T06:34:49;15.13;;;2.20;;
73456;SDS011;61691;53.072;6.582;2024-01-16T06:37:16;10.50;;;1.65;;
73456;SDS011;61691;53.072;6.582;2024-01-16T06:39:43;13.82;;;2.10;;
73456;SDS011;61691;53.072;6.582;2024-01-16T06:42:10;13.30;;;2.38;;
73456;SDS011;61691;53.072;6.582;2024-01-16T06:44:37;10.63;;;1.80;;
73456;SDS011;61691;53.072;6.582;2024-01-16T06:47:04;12.02;;;2.00;;
73456;SDS011;61691;53.072;6.582;2024-01-16T06:49:31;10.57;;;2.33;;
73456;SDS011;61691;53.072;6.582;2024-01-16T06:51:58;16.83;;;2.03;;
73456;SDS011;61691;53.072;6.582;2024-01-16T06:54:25;10.00;;;1.80;;
73456;SDS011;61691;53.072;6.582;2024-01-16T06:56:52;11.45;;;2.00;;
73456;SDS011;61691;53.072;6.582;2024-01-16T06:59:19;9.18;;;1.63;;
73456;SDS011;61691;53.072;6.582;2024-01-16T07:01:48;13.52;;;2.00;;
73456;SDS011;61691;53.072;6.582;2024-01-16T07:04:15;12.90;;;1.85;;
73456;SDS011;61691;53.072;6.582;2024-01-16T07:06:42;15.07;;;2.10;;
73456;SDS011;61691;53.072;6.582;2024-01-16T07:09:09;15.30;;;2.05;;
73456;SDS011;61691;53.072;6.582;2024-01-16T07:11:40;10.65;;;1.90;;
73456;SDS011;61691;53.072;6.582;2024-01-16T07:14:09;14.75;;;3.00;;
73456;SDS011;61691;53.072;6.582;2024-01-16T07:16:36;8.05;;;1.65;;
73456;SDS011;61691;53.072;6.582;2024-01-16T07:19:04;10.95;;;1.80;;
73456;SDS011;61691;53.072;6.582;2024-01-16T07:21:31;11.70;;;2.00;;
73456;SDS011;61691;53.072;6.582;2024-01-16T07:23:57;8.80;;;1.83;;
73456;SDS011;61691;53.072;6.582;2024-01-16T07:26:24;12.70;;;1.83;;
73456;SDS011;61691;53.072;6.582;2024-01-16T07:28:51;13.98;;;2.10;;
73456;SDS011;61691;53.072;6.582;2024-01-16T07:31:18;10.48;;;1.88;;
73456;SDS011;61691;53.072;6.582;2024-01-16T07:33:45;8.43;;;1.90;;
73456;SDS011;61691;53.072;6.582;2024-01-16T07:36:12;12.75;;;1.83;;
73456;SDS011;61691;53.072;6.582;2024-01-16T07:38:40;6.93;;;1.40;;
73456;SDS011;61691;53.072;6.582;2024-01-16T07:41:07;10.57;;;2.05;;
73456;SDS011;61691;53.072;6.582;2024-01-16T07:43:34;13.50;;;1.80;;
73456;SDS011;61691;53.072;6.582;2024-01-16T07:46:01;10.60;;;1.67;;
73456;SDS011;61691;53.072;6.582;2024-01-16T07:48:29;10.65;;;2.10;;
73456;SDS011;61691;53.072;6.582;2024-01-16T07:50:56;8.70;;;1.85;;
73456;SDS011;61691;53.072;6.582;2024-01-16T07:53:23;12.93;;;1.75;;
73456;SDS011;61691;53.072;6.582;2024-01-16T07:55:54;11.65;;;1.73;;
73456;SDS011;61691;53.072;6.582;2024-01-16T07:58:21;13.02;;;2.15;;
73456;SDS011;61691;53.072;6.582;2024-01-16T08:00:48;13.63;;;1.90;;
73456;SDS011;61691;53.072;6.582;2024-01-16T08:03:15;12.63;;;2.10;;
73456;SDS011;61691;53.072;6.582;2024-01-16T08:05:42;12.63;;;1.70;;
73456;SDS011;61691;53.072;6.582;2024-01-16T08:08:09;9.77;;;2.15;;
73456;SDS011;61691;53.072;6.582;2024-01-16T08:10:36;13.82;;;2.30;;
73456;SDS011;61691;53.072;6.582;2024-01-16T08:13:03;8.90;;;1.50;;
73456;SDS011;61691;53.072;6.582;2024-01-16T08:15:30;12.50;;;1.88;;
73456;SDS011;61691;53.072;6.582;2024-01-16T08:17:57;15.30;;;1.85;;
73456;SDS011;61691;53.072;6.582;2024-01-16T08:20:23;12.35;;;2.80;;
73456;SDS011;61691;53.072;6.582;2024-01-16T08:22:50;8.75;;;1.48;;
73456;SDS011;61691;53.072;6.582;2024-01-16T08:25:17;13.88;;;1.80;;
73456;SDS011;61691;53.072;6.582;2024-01-16T08:27:44;12.32;;;2.15;;
73456;SDS011;61691;53.072;6.582;2024-01-16T08:30:11;14.82;;;2.00;;
73456;SDS011;61691;53.072;6.582;2024-01-16T08:32:39;13.07;;;2.40;;
73456;SDS011;61691;53.072;6.582;2024-01-16T08:35:06;15.70;;;2.20;;
73456;SDS011;61691;53.072;6.582;2024-01-16T08:37:33;14.13;;;2.13;;
73456;SDS011;61691;53.072;6.582;2024-01-16T08:40:00;12.18;;;2.10;;
73456;SDS011;61691;53.072;6.582;2024-01-16T08:42:29;12.73;;;2.28;;
73456;SDS011;61691;53.072;6.582;2024-01-16T08:44:57;10.65;;;2.00;;
73456;SDS011;61691;53.072;6.582;2024-01-16T08:47:24;15.23;;;2.40;;
73456;SDS011;61691;53.072;6.582;2024-01-16T08:49:50;17.40;;;2.53;;
73456;SDS011;61691;53.072;6.582;2024-01-16T08:52:18;10.90;;;2.20;;
73456;SDS011;61691;53.072;6.582;2024-01-16T08:54:44;9.40;;;2.20;;
73456;SDS011;61691;53.072;6.582;2024-01-16T08:57:11;17.27;;;2.55;;
73456;SDS011;61691;53.072;6.582;2024-01-16T08:59:43;10.85;;;2.30;;
73456;SDS011;61691;53.072;6.582;2024-01-16T09:02:10;14.05;;;2.63;;
73456;SDS011;61691;53.072;6.582;2024-01-16T09:04:37;13.57;;;2.58;;
73456;SDS011;61691;53.072;6.582;2024-01-16T09:07:04;12.93;;;2.80;;
73456;SDS011;61691;53.072;6.582;2024-01-16T09:09:32;12.38;;;2.50;;
73456;SDS011;61691;53.072;6.582;2024-01-16T09:11:59;11.43;;;2.25;;
73456;SDS011;61691;53.072;6.582;2024-01-16T09:14:26;13.02;;;2.50;;
73456;SDS011;61691;53.072;6.582;2024-01-16T09:16:53;16.13;;;2.80;;
73456;SDS011;61691;53.072;6.582;2024-01-16T09:19:20;17.00;;;2.35;;
73456;SDS011;61691;53.072;6.582;2024-01-16T09:21:47;9.90;;;2.28;;
73456;SDS011;61691;53.072;6.582;2024-01-16T09:24:15;14.98;;;2.35;;
73456;SDS011;61691;53.072;6.582;2024-01-16T09:26:42;17.38;;;2.65;;
73456;SDS011;61691;53.072;6.582;2024-01-16T09:29:09;16.88;;;2.50;;
73456;SDS011;61691;53.072;6.582;2024-01-16T09:31:36;16.13;;;2.85;;
73456;SDS011;61691;53.072;6.582;2024-01-16T09:34:04;12.80;;;2.42;;
73456;SDS011;61691;53.072;6.582;2024-01-16T09:36:35;12.57;;;2.50;;
73456;SDS011;61691;53.072;6.582;2024-01-16T09:39:07;12.35;;;2.40;;
73456;SDS011;61691;53.072;6.582;2024-01-16T09:41:45;11.15;;;2.28;;
73456;SDS011;61691;53.072;6.582;2024-01-16T09:44:12;9.88;;;2.10;;
73456;SDS011;61691;53.072;6.582;2024-01-16T09:46:39;12.70;;;2.20;;
73456;SDS011;61691;53.072;6.582;2024-01-16T09:49:07;14.43;;;3.05;;
73456;SDS011;61691;53.072;6.582;2024-01-16T09:51:35;12.10;;;2.47;;
73456;SDS011;61691;53.072;6.582;2024-01-16T09:54:02;7.70;;;1.77;;
73456;SDS011;61691;53.072;6.582;2024-01-16T09:56:35;14.63;;;2.15;;
73456;SDS011;61691;53.072;6.582;2024-01-16T09:59:08;12.35;;;1.90;;
73456;SDS011;61691;53.072;6.582;2024-01-16T10:01:35;8.60;;;1.80;;
73456;SDS011;61691;53.072;6.582;2024-01-16T10:04:03;15.85;;;2.95;;
73456;SDS011;61691;53.072;6.582;2024-01-16T10:06:30;12.25;;;2.30;;
73456;SDS011;61691;53.072;6.582;2024-01-16T10:08:59;11.30;;;1.90;;
73456;SDS011;61691;53.072;6.582;2024-01-16T10:11:26;10.90;;;2.55;;
73456;SDS011;61691;53.072;6.582;2024-01-16T10:13:54;10.50;;;2.10;;
73456;SDS011;61691;53.072;6.582;2024-01-16T10:16:21;13.35;;;2.20;;
73456;SDS011;61691;53.072;6.582;2024-01-16T10:18:52;13.95;;;2.60;;
73456;SDS011;61691;53.072;6.582;2024-01-16T10:21:31;16.35;;;3.08;;
73456;SDS011;61691;53.072;6.582;2024-01-16T10:24:10;10.88;;;2.70;;
73456;SDS011;61691;53.072;6.582;2024-01-16T10:26:38;12.75;;;2.80;;
73456;SDS011;61691;53.072;6.582;2024-01-16T10:29:05;13.80;;;3.40;;
73456;SDS011;61691;53.072;6.582;2024-01-16T10:31:32;15.63;;;3.47;;
73456;SDS011;61691;53.072;6.582;2024-01-16T10:33:59;18.88;;;3.75;;
73456;SDS011;61691;53.072;6.582;2024-01-16T10:36:25;14.43;;;3.50;;
73456;SDS011;61691;53.072;6.582;2024-01-16T10:38:52;16.73;;;3.72;;
73456;SDS011;61691;53.072;6.582;2024-01-16T10:41:30;14.55;;;3.65;;
73456;SDS011;61691;53.072;6.582;2024-01-16T10:44:06;17.63;;;3.83;;
73456;SDS011;61691;53.072;6.582;2024-01-16T10:46:34;14.98;;;3.60;;
73456;SDS011;61691;53.072;6.582;2024-01-16T10:49:03;16.70;;;4.00;;
73456;SDS011;61691;53.072;6.582;2024-01-16T10:51:31;14.35;;;3.40;;
73456;SDS011;61691;53.072;6.582;2024-01-16T10:53:59;17.42;;;4.13;;
73456;SDS011;61691;53.072;6.582;2024-01-16T10:56:28;15.23;;;3.60;;
73456;SDS011;61691;53.072;6.582;2024-01-16T10:58:57;15.85;;;4.00;;
73456;SDS011;61691;53.072;6.582;2024-01-16T11:01:26;18.77;;;3.80;;
73456;SDS011;61691;53.072;6.582;2024-01-16T11:03:54;16.13;;;3.97;;
73456;SDS011;61691;53.072;6.582;2024-01-16T11:06:23;21.02;;;4.32;;
73456;SDS011;61691;53.072;6.582;2024-01-16T11:08:51;17.02;;;3.63;;
73456;SDS011;61691;53.072;6.582;2024-01-16T11:11:18;16.55;;;3.13;;
73456;SDS011;61691;53.072;6.582;2024-01-16T11:13:46;13.23;;;2.67;;
73456;SDS011;61691;53.072;6.582;2024-01-16T11:16:13;13.63;;;2.83;;
73456;SDS011;61691;53.072;6.582;2024-01-16T11:18:40;12.73;;;2.70;;
73456;SDS011;61691;53.072;6.582;2024-01-16T11:21:08;10.57;;;2.22;;
73456;SDS011;61691;53.072;6.582;2024-01-16T11:23:44;13.00;;;2.50;;
73456;SDS011;61691;53.072;6.582;2024-01-16T11:26:25;7.32;;;1.80;;
73456;SDS011;61691;53.072;6.582;2024-01-16T11:28:58;9.52;;;2.10;;
73456;SDS011;61691;53.072;6.582;2024-01-16T11:31:27;12.68;;;2.83;;
73456;SDS011;61691;53.072;6.582;2024-01-16T11:33:53;8.52;;;2.17;;
73456;SDS011;61691;53.072;6.582;2024-01-16T11:37:03;9.15;;;2.00;;
73456;SDS011;61691;53.072;6.582;2024-01-16T11:39:20;9.60;;;1.80;;
73456;SDS011;61691;53.072;6.582;2024-01-16T11:47:09;11.20;;;2.00;;
73456;SDS011;61691;53.072;6.582;2024-01-16T11:49:46;13.82;;;2.40;;
73456;SDS011;61691;53.072;6.582;2024-01-16T11:52:14;10.43;;;1.90;;
73456;SDS011;61691;53.072;6.582;2024-01-16T11:54:42;12.90;;;2.35;;
73456;SDS011;61691;53.072;6.582;2024-01-16T12:00:04;12.80;;;1.92;;
73456;SDS011;61691;53.072;6.582;2024-01-16T12:05:11;12.05;;;1.92;;
73456;SDS011;61691;53.072;6.582;2024-01-16T12:10:16;11.00;;;2.05;;
73456;SDS011;61691;53.072;6.582;2024-01-16T12:12:44;12.45;;;2.25;;
73456;SDS011;61691;53.072;6.582;2024-01-16T12:15:15;13.07;;;3.65;;
73456;SDS011;61691;53.072;6.582;2024-01-16T12:17:53;12.15;;;2.50;;
73456;SDS011;61691;53.072;6.582;2024-01-16T12:20:25;14.25;;;2.55;;
73456;SDS011;61691;53.072;6.582;2024-01-16T12:25:22;13.23;;;2.65;;
73456;SDS011;61691;53.072;6.582;2024-01-16T12:28:09;13.00;;;2.53;;
73456;SDS011;61691;53.072;6.582;2024-01-16T12:30:37;12.73;;;2.88;;
73456;SDS011;61691;53.072;6.582;2024-01-16T12:35:37;15.77;;;2.60;;
73456;SDS011;61691;53.072;6.582;2024-01-16T12:38:05;10.65;;;2.33;;
73456;SDS011;61691;53.072;6.582;2024-01-16T12:40:35;13.43;;;2.80;;
73456;SDS011;61691;53.072;6.582;2024-01-16T12:43:03;13.35;;;2.50;;
73456;SDS011;61691;53.072;6.582;2024-01-16T12:45:31;14.13;;;3.00;;
73456;SDS011;61691;53.072;6.582;2024-01-16T12:47:59;15.05;;;3.10;;
73456;SDS011;61691;53.072;6.582;2024-01-16T12:50:27;14.32;;;2.70;;
73456;SDS011;61691;53.072;6.582;2024-01-16T12:55:33;15.32;;;3.17;;
73456;SDS011;61691;53.072;6.582;2024-01-16T12:58:14;14.63;;;3.42;;
73456;SDS011;61691;53.072;6.582;2024-01-16T13:00:43;20.88;;;5.93;;
73456;SDS011;61691;53.072;6.582;2024-01-16T13:03:47;17.75;;;3.42;;
73456;SDS011;61691;53.072;6.582;2024-01-16T13:06:06;16.52;;;3.40;;
73456;SDS011;61691;53.072;6.582;2024-01-16T13:08:33;18.15;;;3.50;;
73456;SDS011;61691;53.072;6.582;2024-01-16T13:11:04;17.13;;;3.70;;
73456;SDS011;61691;53.072;6.582;2024-01-16T13:13:32;17.33;;;3.80;;
73456;SDS011;61691;53.072;6.582;2024-01-16T13:16:00;15.63;;;3.67;;
73456;SDS011;61691;53.072;6.582;2024-01-16T13:18:28;14.23;;;3.33;;
73456;SDS011;61691;53.072;6.582;2024-01-16T13:20:56;15.02;;;3.22;;
73456;SDS011;61691;53.072;6.582;2024-01-16T13:23:24;14.90;;;3.40;;
73456;SDS011;61691;53.072;6.582;2024-01-16T13:25:54;16.45;;;4.03;;
73456;SDS011;61691;53.072;6.582;2024-01-16T13:28:23;19.70;;;4.18;;
73456;SDS011;61691;53.072;6.582;2024-01-16T13:30:52;16.55;;;3.25;;
73456;SDS011;61691;53.072;6.582;2024-01-16T13:33:18;18.67;;;4.00;;
73456;SDS011;61691;53.072;6.582;2024-01-16T13:35:46;15.63;;;3.97;;
73456;SDS011;61691;53.072;6.582;2024-01-16T13:38:15;17.63;;;4.22;;
73456;SDS011;61691;53.072;6.582;2024-01-16T13:40:45;17.83;;;4.22;;
73456;SDS011;61691;53.072;6.582;2024-01-16T13:43:12;21.40;;;4.10;;
73456;SDS011;61691;53.072;6.582;2024-01-16T13:45:39;19.63;;;4.20;;
73456;SDS011;61691;53.072;6.582;2024-01-16T13:48:08;16.20;;;3.83;;
73456;SDS011;61691;53.072;6.582;2024-01-16T13:50:35;16.58;;;4.03;;
73456;SDS011;61691;53.072;6.582;2024-01-16T13:53:02;15.85;;;4.35;;
73456;SDS011;61691;53.072;6.582;2024-01-16T13:55:29;17.67;;;4.55;;
73456;SDS011;61691;53.072;6.582;2024-01-16T13:57:58;18.70;;;4.32;;
73456;SDS011;61691;53.072;6.582;2024-01-16T14:00:25;20.15;;;5.10;;
73456;SDS011;61691;53.072;6.582;2024-01-16T14:02:51;16.92;;;4.28;;
73456;SDS011;61691;53.072;6.582;2024-01-16T14:05:19;16.30;;;4.43;;
73456;SDS011;61691;53.072;6.582;2024-01-16T14:07:47;17.95;;;4.18;;
73456;SDS011;61691;53.072;6.582;2024-01-16T14:10:18;19.00;;;6.28;;
73456;SDS011;61691;53.072;6.582;2024-01-16T14:12:47;17.65;;;4.57;;
73456;SDS011;61691;53.072;6.582;2024-01-16T14:15:17;17.60;;;4.03;;
73456;SDS011;61691;53.072;6.582;2024-01-16T14:17:51;17.83;;;4.10;;
73456;SDS011;61691;53.072;6.582;2024-01-16T14:20:20;18.98;;;4.60;;
73456;SDS011;61691;53.072;6.582;2024-01-16T14:22:54;17.50;;;4.30;;
73456;SDS011;61691;53.072;6.582;2024-01-16T14:25:23;20.13;;;4.80;;
73456;SDS011;61691;53.072;6.582;2024-01-16T14:27:57;16.48;;;3.72;;
73456;SDS011;61691;53.072;6.582;2024-01-16T14:30:26;16.58;;;4.13;;
73456;SDS011;61691;53.072;6.582;2024-01-16T14:32:53;19.10;;;3.67;;
73456;SDS011;61691;53.072;6.582;2024-01-16T14:35:20;18.23;;;3.90;;
73456;SDS011;61691;53.072;6.582;2024-01-16T14:37:47;18.85;;;4.18;;
73456;SDS011;61691;53.072;6.582;2024-01-16T14:40:14;17.42;;;3.65;;
73456;SDS011;61691;53.072;6.582;2024-01-16T14:42:47;15.88;;;3.20;;
73456;SDS011;61691;53.072;6.582;2024-01-16T14:45:14;15.98;;;3.20;;
73456;SDS011;61691;53.072;6.582;2024-01-16T14:47:41;18.60;;;3.85;;
73456;SDS011;61691;53.072;6.582;2024-01-16T14:50:09;19.42;;;3.67;;
73456;SDS011;61691;53.072;6.582;2024-01-16T14:52:39;19.60;;;4.57;;
73456;SDS011;61691;53.072;6.582;2024-01-16T14:55:06;14.20;;;3.08;;
73456;SDS011;61691;53.072;6.582;2024-01-16T14:57:33;13.77;;;2.83;;
73456;SDS011;61691;53.072;6.582;2024-01-16T15:00:11;15.45;;;3.33;;
73456;SDS011;61691;53.072;6.582;2024-01-16T15:02:46;14.38;;;2.88;;
73456;SDS011;61691;53.072;6.582;2024-01-16T15:05:17;14.27;;;2.95;;
73456;SDS011;61691;53.072;6.582;2024-01-16T15:07:49;14.77;;;2.65;;